createdAt,value
2023-03-27T00:04:23.426Z,4.04
2023-03-27T00:09:26.367Z,4.03
2023-03-27T00:14:30.604Z,4.00
2023-03-27T00:19:34.032Z,4.02
2023-03-27T00:24:37.283Z,4.04
2023-03-27T00:29:39.816Z,4.00
2023-03-27T00:34:41.915Z,3.97
2023-03-27T00:39:43.960Z,3.89
2023-03-27T00:44:45.755Z,3.78
2023-03-27T00:49:49.951Z,3.64
2023-03-27T00:54:52.180Z,3.47
2023-03-27T00:59:56.201Z,3.29
2023-03-27T01:04:57.753Z,3.11
2023-03-27T01:10:01.203Z,3.01
2023-03-27T01:15:17.714Z,2.90
2023-03-27T01:20:50.417Z,2.80
2023-03-27T01:26:04.381Z,2.64
2023-03-27T01:31:27.990Z,2.54
2023-03-27T01:37:06.416Z,2.44
2023-03-27T01:42:32.763Z,2.29
2023-03-27T01:47:34.728Z,2.20
2023-03-27T01:52:42.622Z,2.12
2023-03-27T01:57:53.862Z,1.98
2023-03-27T02:03:12.182Z,1.78
2023-03-27T02:08:24.741Z,1.66
2023-03-27T02:13:52.445Z,1.55
2023-03-27T02:18:59.021Z,1.49
2023-03-27T02:24:02.604Z,1.48
2023-03-27T02:29:19.677Z,1.49
2023-03-27T02:34:26.982Z,1.50
2023-03-27T02:39:31.782Z,1.52
2023-03-27T02:44:47.234Z,1.48
2023-03-27T02:49:54.380Z,1.40
2023-03-27T02:55:08.084Z,1.23
2023-03-27T03:00:20.440Z,1.14
2023-03-27T03:05:24.198Z,1.12
2023-03-27T03:10:27.518Z,1.11
2023-03-27T03:15:29.287Z,1.03
2023-03-27T03:20:30.846Z,0.95
2023-03-27T03:25:32.622Z,0.94
2023-03-27T03:30:35.316Z,0.93
2023-03-27T03:35:36.886Z,0.87
2023-03-27T03:40:38.885Z,0.80
2023-03-27T03:45:40.704Z,0.76
2023-03-27T03:50:44.417Z,0.73
2023-03-27T03:55:46.868Z,0.67
2023-03-27T04:00:48.450Z,0.63
2023-03-27T04:05:50.972Z,0.60
2023-03-27T04:10:52.567Z,0.66
2023-03-27T04:15:55.449Z,0.74
2023-03-27T04:20:58.667Z,0.69
2023-03-27T04:26:03.634Z,0.71
2023-03-27T04:31:07.888Z,0.88
2023-03-27T04:36:10.241Z,1.10
2023-03-27T04:41:11.741Z,1.26
2023-03-27T04:46:13.367Z,1.37
2023-03-27T04:51:15.267Z,1.46
2023-03-27T04:56:17.569Z,1.58
2023-03-27T05:01:19.118Z,1.65
2023-03-27T05:06:21.214Z,1.77
2023-03-27T05:11:22.740Z,1.85
2023-03-27T05:16:26.618Z,1.84
2023-03-27T05:21:28.277Z,1.80
2023-03-27T05:26:29.942Z,1.79
2023-03-27T05:31:34.157Z,1.89
2023-03-27T05:36:36.098Z,1.99
2023-03-27T05:41:38.250Z,1.91
2023-03-27T05:46:40.346Z,2.00
2023-03-27T05:51:47.296Z,2.27
2023-03-27T05:56:49.787Z,2.59
2023-03-27T06:01:52.016Z,2.94
2023-03-27T06:06:54.295Z,3.18
2023-03-27T06:11:56.029Z,3.39
2023-03-27T06:16:57.911Z,4.50
2023-03-27T06:21:59.440Z,6.26
2023-03-27T06:27:01.175Z,8.28
2023-03-27T06:32:04.573Z,8.69
2023-03-27T06:37:06.158Z,8.07
2023-03-27T06:42:07.697Z,7.55
2023-03-27T06:47:10.804Z,7.49
2023-03-27T06:52:12.326Z,7.55
2023-03-27T06:57:15.459Z,7.94
2023-03-27T07:02:17.736Z,8.26
2023-03-27T07:07:19.550Z,8.42
2023-03-27T07:12:21.306Z,8.66
2023-03-27T07:17:22.846Z,8.81
2023-03-27T07:22:24.718Z,8.91
2023-03-27T07:27:26.497Z,9.04
2023-03-27T07:32:37.049Z,8.93
2023-03-27T07:37:39.843Z,8.76
2023-03-27T07:42:45.556Z,8.87
2023-03-27T07:47:47.712Z,8.68
2023-03-27T07:52:49.809Z,8.44
2023-03-27T07:58:00.975Z,8.23
2023-03-27T08:03:12.157Z,8.05
2023-03-27T08:08:13.820Z,8.12
2023-03-27T08:13:15.822Z,8.32
2023-03-27T08:18:17.550Z,8.61
2023-03-27T08:23:19.939Z,9.09
2023-03-27T08:28:21.448Z,9.78
2023-03-27T08:33:23.877Z,10.35
2023-03-27T08:38:27.301Z,10.25
2023-03-27T08:43:36.335Z,9.85
2023-03-27T08:48:44.572Z,9.28
2023-03-27T08:54:02.736Z,8.82
2023-03-27T08:59:11.715Z,8.63
2023-03-27T09:04:42.814Z,8.44
2023-03-27T09:10:00.137Z,8.55
2023-03-27T09:15:22.395Z,9.32
2023-03-27T09:20:32.529Z,9.27
2023-03-27T09:25:41.104Z,8.73
2023-03-27T09:30:42.579Z,8.36
2023-03-27T09:35:44.346Z,8.19
2023-03-27T09:40:53.477Z,8.17
2023-03-27T09:45:56.736Z,8.20
2023-03-27T09:50:58.521Z,8.29
2023-03-27T09:56:05.444Z,8.29
2023-03-27T10:01:30.867Z,8.77
2023-03-27T10:06:43.208Z,8.96
2023-03-27T10:11:44.827Z,8.75
2023-03-27T10:16:47.914Z,9.04
2023-03-27T10:21:50.747Z,9.09
2023-03-27T10:26:53.414Z,8.53
2023-03-27T10:31:59.981Z,8.25
2023-03-27T10:37:04.414Z,8.33
2023-03-27T10:42:09.119Z,8.32
2023-03-27T10:47:21.018Z,8.31
2023-03-27T10:52:28.247Z,8.40
2023-03-27T10:57:33.528Z,8.13
2023-03-27T11:02:46.033Z,8.03
2023-03-27T11:07:57.345Z,8.26
2023-03-27T11:13:06.067Z,8.74
2023-03-27T11:18:18.591Z,8.43
2023-03-27T11:23:33.949Z,8.25
2023-03-27T11:28:55.929Z,7.89
2023-03-27T11:34:28.384Z,8.39
2023-03-27T11:40:27.079Z,8.83
2023-03-27T11:45:42.396Z,8.81
2023-03-27T11:51:07.335Z,9.15
2023-03-27T11:56:11.991Z,8.96
2023-03-27T12:01:22.300Z,9.28
2023-03-27T12:06:51.586Z,10.86
2023-03-27T12:12:07.571Z,12.93
2023-03-27T12:17:28.263Z,12.69
2023-03-27T12:22:57.852Z,11.21
2023-03-27T12:28:34.001Z,10.62
2023-03-27T12:33:44.585Z,9.54
2023-03-27T12:38:47.923Z,8.91
2023-03-27T12:43:58.875Z,8.88
2023-03-27T12:49:02.098Z,8.68
2023-03-27T12:54:26.284Z,8.29
2023-03-27T12:59:29.655Z,8.14
2023-03-27T13:05:10.745Z,8.13
2023-03-27T13:10:36.106Z,7.65
2023-03-27T13:15:46.463Z,7.63
2023-03-27T13:21:18.998Z,8.14
2023-03-27T13:26:53.508Z,8.59
2023-03-27T13:31:58.286Z,8.52
2023-03-27T13:37:06.902Z,8.06
2023-03-27T13:42:11.543Z,7.88
2023-03-27T13:47:34.373Z,7.87
2023-03-27T13:52:54.348Z,7.90
2023-03-27T13:58:08.693Z,7.86
2023-03-27T14:03:38.389Z,7.60
2023-03-27T14:08:46.381Z,7.25
2023-03-27T14:13:57.090Z,7.25
2023-03-27T14:19:14.835Z,7.20
2023-03-27T14:24:38.736Z,6.95
2023-03-27T14:29:40.355Z,6.73
2023-03-27T14:34:54.456Z,6.60
2023-03-27T14:40:07.181Z,6.51
2023-03-27T14:45:24.199Z,6.38
2023-03-27T14:50:28.361Z,6.19
2023-03-27T14:55:37.334Z,5.94
2023-03-27T15:00:41.014Z,5.84
2023-03-27T15:06:23.778Z,5.69
2023-03-27T15:11:41.156Z,5.71
2023-03-27T15:16:48.752Z,5.40
2023-03-27T15:21:57.967Z,5.24
2023-03-27T15:27:04.265Z,5.12
2023-03-27T15:32:11.854Z,4.99
2023-03-27T15:37:20.021Z,4.84
2023-03-27T15:42:21.986Z,4.69
2023-03-27T15:47:30.125Z,4.57
2023-03-27T15:52:35.256Z,4.46
2023-03-27T15:57:36.864Z,4.34
2023-03-27T16:02:38.988Z,4.22
2023-03-27T16:07:43.826Z,4.16
2023-03-27T16:13:03.042Z,3.97
2023-03-27T16:18:35.157Z,3.79
2023-03-27T16:23:37.479Z,3.55
2023-03-27T16:28:40.489Z,3.34
2023-03-27T16:33:45.380Z,3.14
2023-03-27T16:38:47.445Z,2.98
2023-03-27T16:43:49.656Z,2.93
2023-03-27T16:48:52.491Z,2.91
2023-03-27T16:53:54.777Z,2.91
2023-03-27T16:58:56.342Z,2.92
2023-03-27T17:03:57.923Z,2.88
2023-03-27T17:09:00.152Z,2.86
2023-03-27T17:14:02.031Z,2.81
2023-03-27T17:19:04.205Z,2.75
2023-03-27T17:24:06.348Z,2.72
2023-03-27T17:29:08.554Z,2.70
2023-03-27T17:34:10.586Z,2.60
2023-03-27T17:39:12.811Z,2.57
2023-03-27T17:44:14.425Z,2.52
2023-03-27T17:49:16.102Z,2.46
2023-03-27T17:54:18.672Z,2.47
2023-03-27T17:59:21.083Z,2.42
2023-03-27T18:04:23.404Z,2.28
2023-03-27T18:09:26.356Z,2.23
2023-03-27T18:14:27.878Z,2.18
2023-03-27T18:19:30.228Z,2.12
2023-03-27T18:24:31.719Z,2.11
2023-03-27T18:29:34.477Z,2.09
2023-03-27T18:34:36.646Z,2.08
2023-03-27T18:39:38.414Z,2.05
2023-03-27T18:44:41.683Z,2.05
2023-03-27T18:49:44.485Z,2.04
2023-03-27T18:54:46.302Z,2.03
2023-03-27T18:59:50.538Z,2.00
2023-03-27T19:04:53.246Z,1.96
2023-03-27T19:09:54.786Z,1.90
2023-03-27T19:14:57.028Z,1.84
2023-03-27T19:20:00.542Z,1.68
2023-03-27T19:25:02.174Z,1.54
2023-03-27T19:30:05.408Z,1.38
2023-03-27T19:35:07.295Z,1.28
2023-03-27T19:40:10.663Z,1.25
2023-03-27T19:45:12.991Z,1.18
2023-03-27T19:50:16.100Z,1.06
2023-03-27T19:55:24.032Z,0.97
2023-03-27T20:00:25.917Z,0.85
2023-03-27T20:05:29.517Z,0.73
2023-03-27T20:10:31.354Z,0.60
2023-03-27T20:15:32.850Z,0.51
2023-03-27T20:20:36.580Z,0.45
2023-03-27T20:25:38.801Z,0.43
2023-03-27T20:30:41.581Z,0.32
2023-03-27T20:35:43.145Z,0.17
2023-03-27T20:40:53.302Z,0.06
2023-03-27T20:45:58.954Z,-0.04
2023-03-27T20:51:06.443Z,-0.13
2023-03-27T20:56:12.403Z,-0.20
2023-03-27T21:01:14.637Z,-0.26
2023-03-27T21:06:18.875Z,-0.34
2023-03-27T21:11:20.837Z,-0.43
2023-03-27T21:16:22.407Z,-0.50
2023-03-27T21:21:24.313Z,-0.58
2023-03-27T21:26:25.881Z,-0.65
2023-03-27T21:31:27.449Z,-0.76
2023-03-27T21:36:29.911Z,-0.83
2023-03-27T21:41:32.002Z,-0.90
2023-03-27T21:46:33.628Z,-0.98
2023-03-27T21:51:35.825Z,-1.07
2023-03-27T21:56:37.401Z,-1.15
2023-03-27T22:01:39.367Z,-1.21
2023-03-27T22:06:41.137Z,-1.27
2023-03-27T22:11:44.025Z,-1.36
2023-03-27T22:16:45.565Z,-1.39
2023-03-27T22:21:47.186Z,-1.47
2023-03-27T22:26:49.119Z,-1.57
2023-03-27T22:31:50.987Z,-1.66
2023-03-27T22:36:52.606Z,-1.73
2023-03-27T22:41:54.324Z,-1.82
2023-03-27T22:46:55.893Z,-1.86
2023-03-27T22:51:57.480Z,-1.93
2023-03-27T22:56:59.275Z,-1.98
2023-03-27T23:02:01.142Z,-2.03
2023-03-27T23:07:03.123Z,-2.09
2023-03-27T23:12:04.923Z,-2.18
2023-03-27T23:17:06.439Z,-2.22
2023-03-27T23:22:08.396Z,-2.31
2023-03-27T23:27:09.950Z,-2.32
2023-03-27T23:32:11.515Z,-2.25
2023-03-27T23:37:13.296Z,-2.17
2023-03-27T23:42:14.846Z,-2.17
2023-03-27T23:47:16.359Z,-2.23
2023-03-27T23:52:17.881Z,-2.32
2023-03-27T23:57:20.286Z,-2.43
